logo dgac
Domingo 16 de Diciembre del 2018
Buscar por aerodromo o helipuerto
Ingrese nombre de aeródromo, localidad o designador OACI:
METAR del 16-12-2018 a las 23:00 UTC
METAR SCBA 162300Z AUTO 30021KT CAVOK 13/M00 Q1014
Nan: AUTO
Viento: dirección 300 grados, velocidad 21 nudos
Visibilidad: 10 km o más,
    sin nubes bajo los 5.000 pies o bajo del MSA (Mínimo de Seguridad del Aeródromo),
    sin cumulonimbus, y sin fenómenos de tiempo significativo en el aeródromo o alrededores
Temperatura: 13 °C
Rocío: -0 °C
Humedad_relativa: 41%
Presión: 1014 hPa
METAR del 16-12-2018 a las 22:00 UTC
METAR SCBA 162200Z AUTO 30023G33KT CAVOK 14/M01 Q1013
Nan: AUTO
Viento: dirección 300 grados, velocidad 23 nudos, con ráfagas de velocidad máxima de 33Nudos
Visibilidad: 10 km o más,
    sin nubes bajo los 5.000 pies o bajo del MSA (Mínimo de Seguridad del Aeródromo),
    sin cumulonimbus, y sin fenómenos de tiempo significativo en el aeródromo o alrededores
Temperatura: 14 °C
Rocío: -1 °C
Humedad_relativa: 36%
Presión: 1013 hPa
METAR del 16-12-2018 a las 22:00 UTC
METAR SCBA 162200Z AUTO 30023G33KT CAVOK 14/M01 Q1013
Nan: AUTO
Viento: dirección 300 grados, velocidad 23 nudos, con ráfagas de velocidad máxima de 33Nudos
Visibilidad: 10 km o más,
    sin nubes bajo los 5.000 pies o bajo del MSA (Mínimo de Seguridad del Aeródromo),
    sin cumulonimbus, y sin fenómenos de tiempo significativo en el aeródromo o alrededores
Temperatura: 14 °C
Rocío: -1 °C
Humedad_relativa: 36%
Presión: 1013 hPa
METAR del 16-12-2018 a las 22:00 UTC
METAR SCBA 162200Z AUTO 30023G33KT CAVOK 14/M01 Q1013
Nan: AUTO
Viento: dirección 300 grados, velocidad 23 nudos, con ráfagas de velocidad máxima de 33Nudos
Visibilidad: 10 km o más,
    sin nubes bajo los 5.000 pies o bajo del MSA (Mínimo de Seguridad del Aeródromo),
    sin cumulonimbus, y sin fenómenos de tiempo significativo en el aeródromo o alrededores
Temperatura: 14 °C
Rocío: -1 °C
Humedad_relativa: 36%
Presión: 1013 hPa
METAR del 16-12-2018 a las 22:00 UTC
METAR SCBA 162200Z AUTO 30023G33KT CAVOK 14/M01 Q1013
Nan: AUTO
Viento: dirección 300 grados, velocidad 23 nudos, con ráfagas de velocidad máxima de 33Nudos
Visibilidad: 10 km o más,
    sin nubes bajo los 5.000 pies o bajo del MSA (Mínimo de Seguridad del Aeródromo),
    sin cumulonimbus, y sin fenómenos de tiempo significativo en el aeródromo o alrededores
Temperatura: 14 °C
Rocío: -1 °C
Humedad_relativa: 36%
Presión: 1013 hPa
METAR del 16-12-2018 a las 21:00 UTC
METAR SCBA 162100Z 30027KT 9999 FEW050 14/M01 Q1013
Viento: dirección 300 grados, velocidad 27 nudos
Visibilidad: 10 km o más
Nubes: Escasa nubosidad a 5000 pies sobre el nivel del aeródromo
Temperatura: 14 °C
Rocío: -1 °C
Humedad_relativa: 36%
Presión: 1013 hPa
METAR del 16-12-2018 a las 20:00 UTC
METAR SCBA 162000Z 32023G33KT 9999 FEW050 15/M00 Q1012
Viento: dirección 320 grados, velocidad 23 nudos, con ráfagas de velocidad máxima de 33Nudos
Visibilidad: 10 km o más
Nubes: Escasa nubosidad a 5000 pies sobre el nivel del aeródromo
Temperatura: 15 °C
Rocío: -0 °C
Humedad_relativa: 36%
Presión: 1012 hPa
METAR del 16-12-2018 a las 19:00 UTC
METAR SCBA 161900Z 27013G24KT 9999 FEW050 16/M02 Q1010
Viento: dirección 270 grados, velocidad 13 nudos, con ráfagas de velocidad máxima de 24Nudos
Visibilidad: 10 km o más
Nubes: Escasa nubosidad a 5000 pies sobre el nivel del aeródromo
Temperatura: 16 °C
Rocío: -2 °C
Humedad_relativa: 29%
Presión: 1010 hPa
METAR del 16-12-2018 a las 18:00 UTC
METAR SCBA 161800Z 25018G28KT 240V320 9999 SCT050 16/M04 Q1011
Viento: dirección 250 grados, velocidad 18 nudos, con ráfagas de velocidad máxima de 28Nudos
Viento con dirección variable entre 240 y 320 grados
Visibilidad: 10 km o más
Nubes: Nubosidad parcial a 5000 pies sobre el nivel del aeródromo
Temperatura: 16 °C
Rocío: -4 °C
Humedad_relativa: 25%
Presión: 1011 hPa
METAR del 16-12-2018 a las 18:00 UTC
METAR SCBA 161800Z 25018G28KT 240V320 9999 SCT050 16/M04 Q1011
Viento: dirección 250 grados, velocidad 18 nudos, con ráfagas de velocidad máxima de 28Nudos
Viento con dirección variable entre 240 y 320 grados
Visibilidad: 10 km o más
Nubes: Nubosidad parcial a 5000 pies sobre el nivel del aeródromo
Temperatura: 16 °C
Rocío: -4 °C
Humedad_relativa: 25%
Presión: 1011 hPa